Time;durP1;ratioP1;P1;durP2;ratioP2;P2;SDS_P1;SDS_P2;PMS_P1;PMS_P2;Temp;Humidity;BMP_temperature;BMP_pressure;BME280_temperature;BME280_humidity;BME280_pressure;Samples;Min_cycle;Max_cycle;Signal;HPM_P1;HPM_P2
2022/05/05 00:02:02;;;;;;;11.75;3.47;;;8.30;99.90;;;;;;4980778;28;20037;-57
2022/05/05 00:04:27;;;;;;;7.72;3.50;;;8.30;99.90;;;;;;4982532;28;20116;-57
2022/05/05 00:06:53;;;;;;;7.07;3.40;;;8.20;99.90;;;;;;4991349;28;20034;-58
2022/05/05 00:09:19;;;;;;;10.55;4.68;;;8.30;99.90;;;;;;4973117;28;20050;-58
2022/05/05 00:14:31;;;;;;;;;;;8.20;99.90;;;;;;4987721;28;20045;-58
2022/05/05 00:17:08;;;;;;;7.65;4.00;;;8.10;99.90;;;;;;4989841;28;19910;-57
2022/05/05 00:19:35;;;;;;;10.00;3.72;;;8.10;99.90;;;;;;4989651;28;20893;-57
2022/05/05 00:22:02;;;;;;;10.82;3.80;;;8.00;99.90;;;;;;4990299;28;20109;-57
2022/05/05 00:24:27;;;;;;;9.40;3.90;;;8.00;99.90;;;;;;4982875;28;20030;-57
2022/05/05 00:26:53;;;;;;;11.25;3.83;;;7.90;99.90;;;;;;4963803;28;20034;-58
2022/05/05 00:29:20;;;;;;;8.60;3.80;;;7.90;99.90;;;;;;4983431;28;20046;-57
2022/05/05 00:31:46;;;;;;;5.63;3.25;;;7.90;99.90;;;;;;4989211;28;20025;-59
2022/05/05 00:34:12;;;;;;;7.30;4.25;;;7.80;99.90;;;;;;4985445;28;20472;-58
2022/05/05 00:36:37;;;;;;;7.70;3.78;;;7.80;99.90;;;;;;4987043;28;20019;-58
2022/05/05 00:39:04;;;;;;;6.88;3.78;;;7.80;99.90;;;;;;4982296;28;20080;-56
2022/05/05 00:41:34;;;;;;;9.23;3.55;;;7.80;99.90;;;;;;4987455;28;20061;-59
2022/05/05 00:44:02;;;;;;;9.27;3.88;;;7.80;99.90;;;;;;4987572;28;20037;-57
2022/05/05 00:46:28;;;;;;;15.98;5.18;;;7.80;99.90;;;;;;4989161;28;20023;-59
2022/05/05 00:48:55;;;;;;;15.00;3.63;;;7.80;99.90;;;;;;4983967;28;20109;-59
2022/05/05 00:51:21;;;;;;;9.18;4.07;;;7.80;99.90;;;;;;4987471;28;20034;-58
2022/05/05 00:53:46;;;;;;;11.30;4.18;;;7.80;99.90;;;;;;4984894;28;22188;-58
2022/05/05 00:56:14;;;;;;;5.38;3.67;;;7.80;99.90;;;;;;4979227;28;20031;-57
2022/05/05 00:58:43;;;;;;;7.95;3.70;;;7.80;99.90;;;;;;4983997;28;20105;-59
2022/05/05 01:01:08;;;;;;;10.68;4.13;;;7.80;99.90;;;;;;4988813;28;20030;-58
2022/05/05 01:03:36;;;;;;;9.77;3.85;;;7.80;99.90;;;;;;4985536;28;20045;-57
2022/05/05 01:06:03;;;;;;;8.93;4.20;;;7.80;99.90;;;;;;4988139;28;20033;-57
2022/05/05 01:08:30;;;;;;;6.65;4.07;;;7.80;99.90;;;;;;4982945;28;20130;-58
2022/05/05 01:10:55;;;;;;;5.43;3.65;;;7.80;99.90;;;;;;4968211;28;20164;-57
2022/05/05 01:13:21;;;;;;;7.30;3.45;;;7.80;99.90;;;;;;4984528;28;20771;-56
2022/05/05 01:15:47;;;;;;;7.63;3.88;;;7.90;99.90;;;;;;4983210;28;20036;-59
2022/05/05 01:18:13;;;;;;;10.25;4.07;;;7.90;99.90;;;;;;4979090;28;20567;-58
2022/05/05 01:20:46;;;;;;;10.00;4.15;;;8.00;99.90;;;;;;4982915;28;20381;-59
2022/05/05 01:23:12;;;;;;;7.07;3.72;;;8.00;99.90;;;;;;4984251;28;20053;-59
2022/05/05 01:28:22;;;;;;;4.70;3.38;;;8.00;99.90;;;;;;4987001;28;20140;-58
2022/05/05 01:30:48;;;;;;;7.60;3.55;;;8.00;99.90;;;;;;4987612;28;20058;-58
2022/05/05 01:33:13;;;;;;;9.32;3.95;;;7.90;99.90;;;;;;4979979;28;20080;-58
2022/05/05 01:35:40;;;;;;;11.13;4.22;;;7.90;99.90;;;;;;4986584;28;20105;-58
2022/05/05 01:38:10;;;;;;;11.98;4.30;;;7.90;99.90;;;;;;4988652;28;20034;-58
2022/05/05 01:40:37;;;;;;;8.52;4.05;;;8.00;99.90;;;;;;4981119;28;20023;-58
2022/05/05 01:43:04;;;;;;;9.85;4.38;;;8.00;99.90;;;;;;4975041;28;20392;-59
2022/05/05 01:45:30;;;;;;;10.93;3.80;;;7.90;99.90;;;;;;4987875;28;20403;-58
2022/05/05 01:47:57;;;;;;;11.70;3.97;;;7.80;99.90;;;;;;4985806;28;20564;-57
2022/05/05 01:50:22;;;;;;;8.63;4.22;;;7.80;99.90;;;;;;4981082;28;20030;-53
2022/05/05 01:52:48;;;;;;;9.77;4.20;;;7.80;99.90;;;;;;4986854;28;20046;-58
2022/05/05 01:55:14;;;;;;;10.20;4.20;;;7.70;99.90;;;;;;4978455;28;20083;-59
2022/05/05 01:57:39;;;;;;;12.18;4.40;;;7.70;99.90;;;;;;4976076;28;20471;-59
2022/05/05 02:00:06;;;;;;;12.15;4.47;;;7.70;99.90;;;;;;4982891;28;20047;-58
2022/05/05 02:02:31;;;;;;;15.40;4.90;;;7.70;99.90;;;;;;4986918;28;20038;-59
2022/05/05 02:04:57;;;;;;;14.15;4.60;;;7.70;99.90;;;;;;4981954;28;20041;-59
2022/05/05 02:07:23;;;;;;;7.85;3.95;;;7.60;99.90;;;;;;4989202;28;20034;-59
2022/05/05 02:09:48;;;;;;;11.27;4.30;;;7.60;99.90;;;;;;4968764;28;20463;-60
2022/05/05 02:12:14;;;;;;;18.13;4.53;;;7.50;99.90;;;;;;4986804;28;20034;-59
2022/05/05 02:14:39;;;;;;;13.65;4.50;;;7.50;99.90;;;;;;4975861;28;20098;-59
2022/05/05 02:17:05;;;;;;;8.32;4.28;;;7.50;99.90;;;;;;4982301;28;20038;-59
2022/05/05 02:19:31;;;;;;;8.80;3.90;;;7.40;99.90;;;;;;4979086;28;20066;-58
2022/05/05 02:21:57;;;;;;;11.15;4.05;;;7.40;99.90;;;;;;4984191;28;20023;-58
2022/05/05 02:24:23;;;;;;;14.20;5.20;;;7.40;99.90;;;;;;4985123;28;20034;-53
2022/05/05 02:26:48;;;;;;;8.18;4.00;;;7.40;99.90;;;;;;4991830;28;20416;-59
2022/05/05 02:29:14;;;;;;;8.23;4.53;;;7.30;99.90;;;;;;4988007;28;20396;-58
2022/05/05 02:31:40;;;;;;;13.57;4.50;;;7.20;99.90;;;;;;4993198;28;20535;-59
2022/05/05 02:34:08;;;;;;;13.85;6.47;;;7.20;99.90;;;;;;4990962;28;20443;-57
2022/05/05 02:39:19;;;;;;;17.20;5.53;;;7.20;99.90;;;;;;4978974;28;20166;-59
2022/05/05 02:41:44;;;;;;;12.02;4.70;;;7.20;99.90;;;;;;4993709;28;20030;-59
2022/05/05 02:44:10;;;;;;;7.55;3.78;;;7.30;99.90;;;;;;4991509;28;20056;-58
2022/05/05 02:46:35;;;;;;;8.43;4.20;;;7.40;99.90;;;;;;4992311;28;20045;-61
2022/05/05 02:49:01;;;;;;;8.60;4.68;;;7.40;99.90;;;;;;4983306;28;20114;-58
2022/05/05 02:51:27;;;;;;;8.98;4.45;;;7.50;99.90;;;;;;4992467;28;20022;-58
2022/05/05 02:56:36;;;;;;;15.32;4.95;;;7.60;99.90;;;;;;4991572;28;20133;-58
2022/05/05 02:59:02;;;;;;;7.93;4.80;;;7.60;99.90;;;;;;4991251;28;20117;-58
2022/05/05 03:01:27;;;;;;;12.75;5.30;;;7.60;99.90;;;;;;4991419;28;20038;-59
2022/05/05 03:03:53;;;;;;;9.30;4.43;;;7.70;99.90;;;;;;4987494;28;20048;-59
2022/05/05 03:06:19;;;;;;;10.35;5.38;;;7.60;99.90;;;;;;4992158;28;20674;-58
2022/05/05 03:08:44;;;;;;;9.25;4.80;;;7.60;99.90;;;;;;4989481;28;20106;-58
2022/05/05 03:11:10;;;;;;;8.95;4.68;;;7.70;99.90;;;;;;4967102;28;20046;-58
2022/05/05 03:13:36;;;;;;;13.30;5.80;;;7.70;99.90;;;;;;4989718;28;20049;-58
2022/05/05 03:16:05;;;;;;;16.65;5.00;;;7.70;99.90;;;;;;4991532;28;20037;-57
2022/05/05 03:18:30;;;;;;;8.25;4.85;;;7.70;99.90;;;;;;4986978;28;20138;-58
2022/05/05 03:20:56;;;;;;;20.02;5.63;;;7.80;99.90;;;;;;4990950;28;20170;-58
2022/05/05 03:23:21;;;;;;;12.80;5.72;;;7.80;99.90;;;;;;4991398;28;20057;-59
2022/05/05 03:25:47;;;;;;;11.48;5.30;;;7.80;99.90;;;;;;4986710;28;20038;-58
2022/05/05 03:28:13;;;;;;;11.18;4.80;;;7.80;99.90;;;;;;4978799;28;20503;-59
2022/05/05 03:30:40;;;;;;;11.18;4.20;;;7.80;99.90;;;;;;4988200;28;20022;-57
2022/05/05 03:33:09;;;;;;;7.28;4.45;;;7.90;99.90;;;;;;4987464;28;20150;-59
2022/05/05 03:35:35;;;;;;;12.80;4.70;;;7.80;99.90;;;;;;4989656;28;20038;-58
2022/05/05 03:38:00;;;;;;;15.63;4.53;;;7.90;99.90;;;;;;4987661;28;20033;-59
2022/05/05 03:40:26;;;;;;;15.07;4.97;;;7.90;99.90;;;;;;4990825;28;20513;-58
2022/05/05 03:42:51;;;;;;;9.35;5.13;;;7.90;99.90;;;;;;4991097;28;20057;-58
2022/05/05 03:45:17;;;;;;;10.32;5.22;;;7.90;99.90;;;;;;4984994;28;20033;-59
2022/05/05 03:47:42;;;;;;;10.02;5.13;;;8.00;99.90;;;;;;4990996;28;20399;-58
2022/05/05 03:50:09;;;;;;;10.88;4.82;;;8.00;99.90;;;;;;4988560;28;20027;-59
2022/05/05 03:52:34;;;;;;;13.90;5.53;;;8.00;99.90;;;;;;4989983;28;20022;-59
2022/05/05 03:55:00;;;;;;;11.05;4.60;;;8.10;99.90;;;;;;4986185;28;20038;-59
2022/05/05 03:57:25;;;;;;;13.32;4.95;;;8.10;99.90;;;;;;4981030;28;20045;-59
2022/05/05 03:59:51;;;;;;;9.50;4.38;;;8.20;99.90;;;;;;4985936;28;20037;-59
2022/05/05 04:02:17;;;;;;;8.38;5.00;;;8.20;99.90;;;;;;4992384;28;20034;-56
2022/05/05 04:04:42;;;;;;;7.53;3.92;;;8.20;99.90;;;;;;4984617;28;20121;-58
2022/05/05 04:07:08;;;;;;;9.55;5.63;;;8.20;99.90;;;;;;4992133;28;20089;-59
2022/05/05 04:09:33;;;;;;;7.45;4.68;;;8.20;99.90;;;;;;4986639;28;20026;-58
2022/05/05 04:11:59;;;;;;;9.63;4.95;;;8.30;99.90;;;;;;4974679;28;20045;-59
2022/05/05 04:14:25;;;;;;;8.45;4.93;;;8.30;99.90;;;;;;4980669;28;20030;-58
2022/05/05 04:16:51;;;;;;;10.15;5.07;;;8.30;99.90;;;;;;4983353;28;20514;-58
2022/05/05 04:19:16;;;;;;;11.60;4.80;;;8.30;99.90;;;;;;4987419;28;20026;-58
2022/05/05 04:21:42;;;;;;;9.65;4.57;;;8.20;99.90;;;;;;4989131;28;20027;-58
2022/05/05 04:24:08;;;;;;;7.45;4.22;;;8.30;99.90;;;;;;4983289;28;20026;-56
2022/05/05 04:26:33;;;;;;;10.70;4.60;;;8.30;99.90;;;;;;4981343;28;20512;-59
2022/05/05 04:29:00;;;;;;;11.13;5.07;;;8.20;99.90;;;;;;4986897;28;20026;-59
2022/05/05 04:31:29;;;;;;;9.60;4.90;;;8.20;99.90;;;;;;4989559;28;20435;-58
2022/05/05 04:33:54;;;;;;;8.55;4.07;;;8.00;99.90;;;;;;4988957;28;20110;-58
2022/05/05 04:36:20;;;;;;;9.18;4.70;;;8.00;99.90;;;;;;4988867;28;20113;-59
2022/05/05 04:38:45;;;;;;;13.07;5.00;;;8.00;99.90;;;;;;4985400;28;20489;-58
2022/05/05 04:41:11;;;;;;;15.90;5.07;;;8.00;99.90;;;;;;4991217;28;20042;-57
2022/05/05 04:43:37;;;;;;;10.88;4.93;;;8.00;99.90;;;;;;4982826;28;20033;-57
2022/05/05 04:46:02;;;;;;;10.65;5.43;;;8.10;99.90;;;;;;4989992;28;20315;-58
2022/05/05 04:48:28;;;;;;;12.68;4.78;;;8.20;99.90;;;;;;4985816;28;20084;-58
2022/05/05 04:50:53;;;;;;;10.73;5.30;;;8.20;99.90;;;;;;4990582;28;20033;-57
2022/05/05 04:53:19;;;;;;;11.63;5.40;;;8.20;99.90;;;;;;4986843;28;20042;-55
2022/05/05 04:55:44;;;;;;;9.75;4.93;;;8.40;99.90;;;;;;4984352;28;20037;-59
2022/05/05 04:58:10;;;;;;;16.70;4.43;;;8.40;99.90;;;;;;4988953;28;20035;-58
2022/05/05 05:00:36;;;;;;;9.45;5.03;;;8.50;99.90;;;;;;4986009;28;20034;-58
2022/05/05 05:03:02;;;;;;;11.02;4.55;;;8.60;99.90;;;;;;4979722;28;20411;-58
2022/05/05 05:05:27;;;;;;;9.52;4.22;;;8.80;99.90;;;;;;4991545;28;20026;-57
2022/05/05 05:07:53;;;;;;;14.98;4.18;;;8.80;99.90;;;;;;4983242;28;20030;-58
2022/05/05 05:10:18;;;;;;;11.13;5.15;;;9.00;99.90;;;;;;4985526;28;20088;-57
2022/05/05 05:12:44;;;;;;;9.52;4.20;;;9.40;99.90;;;;;;4965764;28;20054;-59
2022/05/05 05:15:10;;;;;;;7.75;4.32;;;10.00;99.90;;;;;;4986100;28;20022;-58
2022/05/05 05:17:36;;;;;;;13.60;4.07;;;11.00;99.90;;;;;;4986179;28;20503;-59
2022/05/05 05:20:03;;;;;;;14.55;4.60;;;11.40;99.90;;;;;;4986675;28;20034;-59
2022/05/05 05:22:28;;;;;;;9.38;4.32;;;12.00;99.90;;;;;;4988229;28;20034;-59
2022/05/05 05:24:54;;;;;;;8.50;4.45;;;12.40;99.90;;;;;;4983708;28;20035;-58
2022/05/05 05:27:20;;;;;;;7.30;4.38;;;12.60;99.80;;;;;;4989009;28;20038;-59
2022/05/05 05:29:45;;;;;;;9.18;4.57;;;12.90;99.80;;;;;;4988113;28;20443;-61
2022/05/05 05:32:11;;;;;;;10.00;4.80;;;12.70;99.20;;;;;;4988492;28;20031;-59
2022/05/05 05:34:36;;;;;;;12.48;5.40;;;12.20;99.90;;;;;;4988550;28;20042;-59
2022/05/05 05:37:03;;;;;;;11.23;4.65;;;11.90;99.90;;;;;;4985212;28;20035;-57
2022/05/05 05:39:29;;;;;;;10.88;4.85;;;11.60;99.90;;;;;;4986519;28;20554;-59
2022/05/05 05:41:55;;;;;;;9.05;4.00;;;11.30;99.90;;;;;;4993183;28;20080;-57
2022/05/05 05:44:20;;;;;;;8.57;4.68;;;11.20;99.90;;;;;;4988947;28;20042;-59
2022/05/05 05:46:46;;;;;;;12.32;4.82;;;11.60;99.90;;;;;;4994103;28;20451;-59
2022/05/05 05:49:11;;;;;;;12.70;5.35;;;11.80;99.90;;;;;;4984847;28;20034;-59
2022/05/05 05:51:37;;;;;;;10.02;4.50;;;12.10;99.90;;;;;;4994582;28;20041;-59
2022/05/05 05:54:03;;;;;;;9.57;5.30;;;12.40;99.90;;;;;;4992433;28;20029;-58
2022/05/05 05:56:29;;;;;;;17.35;5.90;;;12.90;99.70;;;;;;4993578;28;20048;-59
2022/05/05 05:58:54;;;;;;;14.30;6.70;;;13.90;98.80;;;;;;4990488;28;20559;-60
2022/05/05 06:01:20;;;;;;;13.52;5.95;;;14.30;96.40;;;;;;4989512;28;20122;-60
2022/05/05 06:03:54;;;;;;;15.65;7.25;;;14.10;95.60;;;;;;4986946;28;20041;-59
2022/05/05 06:06:21;;;;;;;16.83;7.05;;;13.90;96.30;;;;;;4991342;28;20122;-60
2022/05/05 06:08:47;;;;;;;16.52;7.07;;;13.50;97.10;;;;;;4987800;28;20090;-57
2022/05/05 06:11:13;;;;;;;10.43;6.30;;;13.40;97.40;;;;;;4975133;28;20050;-59
2022/05/05 06:13:39;;;;;;;12.48;7.22;;;13.20;97.50;;;;;;4978581;28;20028;-59
2022/05/05 06:16:06;;;;;;;19.85;7.13;;;13.00;98.00;;;;;;4990591;28;20026;-58
2022/05/05 06:18:35;;;;;;;13.27;7.38;;;12.80;98.40;;;;;;4987808;28;20026;-59
2022/05/05 06:21:01;;;;;;;21.95;7.43;;;12.70;98.70;;;;;;4992276;28;20046;-59
2022/05/05 06:23:26;;;;;;;15.18;8.18;;;12.90;98.80;;;;;;4989250;28;20039;-60
2022/05/05 06:25:52;;;;;;;15.85;8.60;;;13.40;98.60;;;;;;4992362;28;20480;-58
2022/05/05 06:28:17;;;;;;;22.45;8.93;;;13.80;97.10;;;;;;4988723;28;20037;-58
2022/05/05 06:30:43;;;;;;;13.77;8.98;;;14.20;96.40;;;;;;4991681;28;20060;-59
2022/05/05 06:33:09;;;;;;;15.98;9.20;;;14.70;95.80;;;;;;4988762;28;20030;-58
2022/05/05 06:35:36;;;;;;;11.45;7.38;;;15.90;93.60;;;;;;4989103;28;20489;-60
2022/05/05 06:38:02;;;;;;;22.77;9.95;;;16.60;93.60;;;;;;4984055;28;20042;-59
2022/05/05 06:40:28;;;;;;;17.40;9.38;;;18.20;90.60;;;;;;4992236;28;20103;-57
2022/05/05 06:42:53;;;;;;;16.15;8.70;;;18.80;89.00;;;;;;4991280;28;20539;-58
2022/05/05 06:45:19;;;;;;;12.93;8.70;;;18.60;85.60;;;;;;4983384;28;20038;-59
2022/05/05 06:47:44;;;;;;;15.30;8.25;;;18.60;85.80;;;;;;4992737;28;20030;-58
2022/05/05 06:50:10;;;;;;;14.25;8.20;;;18.10;87.80;;;;;;4984450;28;20022;-60
2022/05/05 06:52:35;;;;;;;17.10;7.93;;;18.50;87.50;;;;;;4993459;28;20102;-59
2022/05/05 06:55:01;;;;;;;17.08;7.47;;;18.40;87.10;;;;;;4989975;28;20034;-59
2022/05/05 06:57:26;;;;;;;13.25;8.40;;;17.90;88.60;;;;;;4992914;28;20035;-60
2022/05/05 06:59:52;;;;;;;14.02;8.30;;;17.90;90.30;;;;;;4983491;28;20038;-59
2022/05/05 07:02:18;;;;;;;15.02;7.82;;;19.00;88.30;;;;;;4992016;28;20037;-60
2022/05/05 07:07:29;;;;;;;18.45;8.90;;;20.90;82.20;;;;;;4989487;28;20424;-60
2022/05/05 07:12:38;;;;;;;14.07;7.63;;;21.10;77.90;;;;;;4976963;28;20078;-60
2022/05/05 07:15:04;;;;;;;15.82;8.63;;;20.60;80.10;;;;;;4987582;28;20027;-60
2022/05/05 07:17:30;;;;;;;15.60;8.20;;;21.30;80.10;;;;;;4989975;28;20034;-60
2022/05/05 07:19:56;;;;;;;16.95;9.20;;;21.80;78.70;;;;;;4987292;28;20026;-61
2022/05/05 07:22:22;;;;;;;13.40;8.38;;;21.70;77.30;;;;;;4991994;28;20110;-59
2022/05/05 07:24:47;;;;;;;16.67;7.97;;;22.70;76.80;;;;;;4984134;28;20127;-58
2022/05/05 07:27:13;;;;;;;14.07;8.13;;;23.50;74.50;;;;;;4981040;28;20114;-55
2022/05/05 07:29:40;;;;;;;13.07;8.18;;;23.10;72.00;;;;;;4986188;28;20097;-58
2022/05/05 07:32:06;;;;;;;17.85;7.65;;;22.90;73.20;;;;;;4989690;28;20387;-57
2022/05/05 07:34:34;;;;;;;17.90;8.77;;;22.90;73.20;;;;;;4987111;28;20125;-58
2022/05/05 07:37:00;;;;;;;16.88;8.25;;;22.20;72.80;;;;;;4987612;28;20023;-58
2022/05/05 07:39:25;;;;;;;13.38;7.93;;;21.50;76.00;;;;;;4991700;28;20037;-60
2022/05/05 07:41:51;;;;;;;27.70;8.70;;;21.50;75.50;;;;;;4992666;28;20030;-60
2022/05/05 07:44:17;;;;;;;14.35;8.23;;;21.40;76.00;;;;;;4987246;28;20109;-60
2022/05/05 07:46:42;;;;;;;19.05;8.55;;;20.20;78.20;;;;;;4985360;28;20030;-60
2022/05/05 07:49:08;;;;;;;18.02;9.80;;;19.60;79.90;;;;;;4986830;28;20101;-60
2022/05/05 07:51:34;;;;;;;17.58;8.55;;;19.40;81.00;;;;;;4986361;28;20389;-60
2022/05/05 07:56:45;;;;;;;17.80;9.60;;;19.00;83.20;;;;;;4990806;28;20049;-59
2022/05/05 07:59:11;;;;;;;20.77;9.45;;;18.70;83.60;;;;;;4986786;28;20027;-60
2022/05/05 08:01:37;;;;;;;16.85;8.77;;;18.50;84.10;;;;;;4983567;28;20088;-60
2022/05/05 08:04:03;;;;;;;17.42;9.57;;;18.50;84.50;;;;;;4986705;28;20053;-59
2022/05/05 08:06:28;;;;;;;16.48;8.27;;;18.80;85.20;;;;;;4986391;28;20042;-60
2022/05/05 08:08:54;;;;;;;22.75;9.23;;;19.70;83.60;;;;;;4978851;28;20073;-59
2022/05/05 08:11:19;;;;;;;19.90;8.80;;;20.40;81.50;;;;;;4988959;28;20026;-60
2022/05/05 08:13:45;;;;;;;16.75;9.27;;;21.10;79.30;;;;;;4970875;28;20042;-60
2022/05/05 08:16:11;;;;;;;16.35;8.85;;;20.90;78.80;;;;;;4987568;28;20479;-61
2022/05/05 08:18:38;;;;;;;18.70;9.98;;;21.00;78.10;;;;;;4983723;28;20376;-61
2022/05/05 08:21:05;;;;;;;19.33;9.35;;;21.40;78.30;;;;;;4990731;28;20023;-56
2022/05/05 08:23:31;;;;;;;18.55;8.27;;;21.10;76.20;;;;;;4989544;28;20064;-58
2022/05/05 08:28:41;;;;;;;19.50;9.50;;;21.50;77.60;;;;;;4990691;28;20037;-60
2022/05/05 08:31:10;;;;;;;13.82;8.60;;;21.30;77.70;;;;;;4990911;28;20767;-59
2022/05/05 08:33:36;;;;;;;16.95;9.98;;;20.90;78.40;;;;;;4984354;28;20022;-59
2022/05/05 08:36:01;;;;;;;28.60;10.15;;;21.40;79.30;;;;;;4987489;28;20510;-60
2022/05/05 08:38:27;;;;;;;17.92;9.88;;;21.80;78.30;;;;;;4983033;28;20038;-59
2022/05/05 08:40:52;;;;;;;15.93;9.45;;;21.30;76.00;;;;;;4983884;28;20559;-60
2022/05/05 08:43:19;;;;;;;15.27;8.40;;;21.70;76.10;;;;;;4989815;28;20468;-59
2022/05/05 08:45:45;;;;;;;21.52;9.85;;;22.10;76.20;;;;;;4987407;28;20089;-59
2022/05/05 08:48:12;;;;;;;17.58;8.85;;;22.00;75.90;;;;;;4987150;28;20448;-60
2022/05/05 08:50:39;;;;;;;19.42;8.25;;;22.30;72.70;;;;;;4988833;28;20031;-61
2022/05/05 08:53:06;;;;;;;23.17;8.63;;;22.70;69.40;;;;;;4976427;28;20027;-61
2022/05/05 08:55:32;;;;;;;17.98;8.20;;;22.60;70.90;;;;;;4986227;28;20036;-58
2022/05/05 08:58:00;;;;;;;15.23;8.48;;;22.70;71.00;;;;;;4999639;28;20014;-58
2022/05/05 09:00:27;;;;;;;17.35;8.48;;;24.10;70.80;;;;;;4987738;28;20026;-58
2022/05/05 09:03:00;;;;;;;22.88;7.95;;;24.70;70.20;;;;;;4983250;28;20108;-59
2022/05/05 09:05:46;;;;;;;18.23;9.32;;;25.10;69.90;;;;;;4986812;28;20491;-55
2022/05/05 09:08:28;;;;;;;22.08;7.97;;;25.10;67.70;;;;;;4988858;28;20034;-59
2022/05/05 09:10:56;;;;;;;15.83;6.90;;;25.30;64.50;;;;;;4990402;28;20019;-59
2022/05/05 09:13:23;;;;;;;15.60;6.75;;;25.00;61.10;;;;;;4976288;28;20054;-61
2022/05/05 09:15:49;;;;;;;12.05;7.03;;;24.70;62.90;;;;;;4988439;28;20030;-59
2022/05/05 09:18:29;;;;;;;17.42;8.25;;;24.90;63.00;;;;;;4987916;28;20030;-60
2022/05/05 09:20:56;;;;;;;21.60;8.07;;;24.60;65.80;;;;;;4989315;28;20025;-60
2022/05/05 09:24:34;;;;;;;13.63;7.20;;;24.40;66.30;;;;;;4987246;28;20940;-59
2022/05/05 09:26:28;;;;;;;16.40;6.78;;;24.10;62.40;;;;;;4982254;28;20034;-59
2022/05/05 09:28:54;;;;;;;11.60;7.13;;;24.70;61.40;;;;;;4982487;28;20501;-59
2022/05/05 09:31:21;;;;;;;20.30;8.35;;;24.80;62.30;;;;;;4988817;28;20034;-59
2022/05/05 09:33:47;;;;;;;18.70;8.95;;;24.60;61.60;;;;;;4985682;28;20105;-59
2022/05/05 09:36:15;;;;;;;21.50;8.75;;;24.20;62.70;;;;;;4979292;28;20030;-60
2022/05/05 09:38:57;;;;;;;12.63;8.35;;;24.50;65.60;;;;;;4983700;28;20031;-59
2022/05/05 09:41:24;;;;;;;18.98;8.75;;;23.90;64.60;;;;;;4987870;28;20038;-59
2022/05/05 09:43:51;;;;;;;16.83;8.65;;;24.40;64.70;;;;;;4987178;28;20101;-60
2022/05/05 09:46:23;;;;;;;12.95;9.20;;;24.60;62.40;;;;;;4981242;28;20114;-59
2022/05/05 09:49:12;;;;;;;13.25;7.95;;;24.30;59.90;;;;;;4980773;28;20030;-60
2022/05/05 09:57:43;;;;;;;18.05;9.60;;;25.00;59.30;;;;;;4982446;28;20064;-58
2022/05/05 10:05:51;;;;;;;21.92;10.35;;;23.80;59.90;;;;;;4987676;28;20073;-62
2022/05/05 10:08:41;;;;;;;18.02;9.65;;;22.90;62.20;;;;;;4976469;28;20027;-61
2022/05/05 10:11:07;;;;;;;18.38;9.15;;;22.60;64.50;;;;;;4981867;28;20019;-62
2022/05/05 10:13:36;;;;;;;20.58;9.32;;;23.20;64.60;;;;;;4969640;28;20045;-60
2022/05/05 10:16:04;;;;;;;16.60;9.82;;;23.30;63.20;;;;;;4990276;28;20031;-61
2022/05/05 10:18:32;;;;;;;15.18;9.20;;;23.20;62.70;;;;;;4984557;28;20463;-55
2022/05/05 10:20:58;;;;;;;19.77;9.98;;;23.10;63.70;;;;;;4986100;28;20101;-61
2022/05/05 10:23:33;;;;;;;17.50;10.25;;;23.00;62.90;;;;;;4984124;28;20118;-61
2022/05/05 10:26:00;;;;;;;16.77;9.65;;;22.80;64.70;;;;;;4990893;28;20037;-61
2022/05/05 10:28:41;;;;;;;15.95;9.98;;;21.80;64.70;;;;;;4990806;28;20026;-61
2022/05/05 10:31:34;;;;;;;19.80;10.35;;;21.40;65.20;;;;;;4987094;28;20031;-62
2022/05/05 10:34:09;;;;;;;15.55;9.90;;;21.40;66.10;;;;;;4985584;28;20521;-59
2022/05/05 10:36:36;;;;;;;17.17;9.48;;;21.70;66.40;;;;;;4985749;28;20045;-61
2022/05/05 10:39:23;;;;;;;17.25;9.93;;;21.70;66.80;;;;;;4988940;28;20026;-62
2022/05/05 10:41:51;;;;;;;15.98;9.48;;;22.50;64.60;;;;;;4989424;28;20082;-61
2022/05/05 10:44:16;;;;;;;19.13;9.95;;;22.80;64.20;;;;;;4983871;28;20018;-60
2022/05/05 10:47:02;;;;;;;16.02;9.60;;;22.90;65.30;;;;;;4988627;28;20508;-61
2022/05/05 10:49:33;;;;;;;19.52;10.23;;;22.70;65.90;;;;;;4988713;28;20038;-61
2022/05/05 10:52:10;;;;;;;17.88;11.52;;;23.40;65.50;;;;;;4987769;28;20035;-60
2022/05/05 10:54:41;;;;;;;18.73;9.95;;;23.30;65.70;;;;;;4986635;28;20488;-61
2022/05/05 10:57:25;;;;;;;15.88;10.30;;;22.90;66.90;;;;;;4987163;28;20256;-61
2022/05/05 11:00:15;;;;;;;14.98;10.05;;;22.70;67.50;;;;;;4978801;28;20053;-61
2022/05/05 11:03:00;;;;;;;16.08;8.90;;;22.40;65.40;;;;;;4990409;28;20026;-61
2022/05/05 11:05:30;;;;;;;12.07;8.05;;;22.50;65.20;;;;;;4990837;28;20134;-60
2022/05/05 11:08:17;;;;;;;16.75;9.20;;;22.20;65.00;;;;;;4991517;28;20029;-61
2022/05/05 11:13:47;;;;;;;18.35;10.85;;;22.70;64.80;;;;;;4967881;28;20052;-60
2022/05/05 11:22:20;;;;;;;26.33;13.32;;;22.50;66.20;;;;;;4988618;28;20108;-61
2022/05/05 11:24:48;;;;;;;19.65;10.90;;;22.40;64.70;;;;;;4986195;28;20324;-61
2022/05/05 11:27:19;;;;;;;16.48;9.43;;;22.20;67.10;;;;;;4986756;28;20077;-61
2022/05/05 11:29:52;;;;;;;13.63;8.27;;;22.30;67.70;;;;;;4982280;28;20022;-60
2022/05/05 11:32:20;;;;;;;16.67;9.73;;;22.50;65.90;;;;;;4984181;28;20136;-60
2022/05/05 11:34:48;;;;;;;13.05;8.32;;;22.60;65.20;;;;;;4985972;28;20092;-61
2022/05/05 11:37:14;;;;;;;19.55;9.23;;;22.80;65.40;;;;;;4986308;28;20030;-62
2022/05/05 11:39:40;;;;;;;12.45;8.77;;;22.40;63.50;;;;;;4983547;28;20065;-61
2022/05/05 11:42:08;;;;;;;16.83;9.65;;;22.20;64.00;;;;;;4984582;28;20054;-61
2022/05/05 11:44:39;;;;;;;18.77;9.40;;;22.50;63.80;;;;;;4990110;28;20057;-61
2022/05/05 11:47:16;;;;;;;16.17;9.13;;;22.70;65.00;;;;;;4975658;28;20496;-61
2022/05/05 11:49:43;;;;;;;17.70;8.43;;;22.50;64.50;;;;;;4988404;28;20121;-62
2022/05/05 11:52:13;;;;;;;14.43;8.32;;;22.70;64.90;;;;;;4983902;28;20015;-62
2022/05/05 11:54:38;;;;;;;15.60;7.78;;;22.60;64.90;;;;;;4992227;28;20024;-61
2022/05/05 11:57:04;;;;;;;10.45;6.47;;;22.50;64.30;;;;;;4991186;28;20030;-62
2022/05/05 12:02:25;;;;;;;13.02;7.38;;;21.30;67.20;;;;;;4989136;28;20042;-61
2022/05/05 12:04:55;;;;;;;13.60;8.77;;;21.50;66.70;;;;;;4974245;28;20121;-61
2022/05/05 12:07:23;;;;;;;14.52;8.57;;;20.80;66.40;;;;;;4981891;28;20388;-61
2022/05/05 12:09:57;;;;;;;14.02;7.35;;;20.60;67.90;;;;;;4984337;28;20023;-61
2022/05/05 12:12:25;;;;;;;15.52;8.48;;;20.60;69.50;;;;;;4990775;28;20407;-61
2022/05/05 12:14:54;;;;;;;18.35;9.10;;;20.70;68.90;;;;;;4968449;28;20043;-61
2022/05/05 12:17:23;;;;;;;13.90;7.55;;;20.40;69.70;;;;;;4996384;28;20494;-60
2022/05/05 12:19:59;;;;;;;18.73;8.30;;;20.70;68.80;;;;;;4985009;28;20092;-61
2022/05/05 12:22:30;;;;;;;13.43;8.13;;;20.70;67.70;;;;;;4991748;28;20070;-58
2022/05/05 12:25:14;;;;;;;13.07;6.80;;;21.00;67.80;;;;;;4990173;28;20080;-61
2022/05/05 12:27:53;;;;;;;13.63;7.22;;;21.10;67.00;;;;;;4985809;28;20035;-61
2022/05/05 12:30:30;;;;;;;14.00;8.10;;;20.90;67.50;;;;;;4976896;28;20022;-61
2022/05/05 12:32:56;;;;;;;18.30;8.55;;;20.80;67.80;;;;;;4984440;28;20026;-60
2022/05/05 12:35:33;;;;;;;14.40;7.45;;;20.60;67.10;;;;;;4983099;28;20085;-60
2022/05/05 12:38:00;;;;;;;18.63;7.70;;;20.60;68.50;;;;;;4983548;28;20101;-61
2022/05/05 12:40:26;;;;;;;16.30;8.52;;;20.60;68.90;;;;;;4975515;28;20026;-61
2022/05/05 12:43:08;;;;;;;13.07;7.13;;;20.70;67.90;;;;;;4983779;28;20447;-60
2022/05/05 12:45:35;;;;;;;16.60;8.50;;;20.70;69.20;;;;;;4980565;28;20093;-61
2022/05/05 12:48:03;;;;;;;13.63;7.97;;;20.90;68.70;;;;;;4981936;28;20022;-61
2022/05/05 12:50:35;;;;;;;20.17;8.88;;;21.00;68.80;;;;;;4979815;28;20448;-58
2022/05/05 13:01:43;;;;;;;13.80;6.78;;;21.30;69.10;;;;;;4984300;28;20045;-60
2022/05/05 13:04:13;;;;;;;15.38;6.38;;;21.40;67.00;;;;;;4986981;28;20034;-62
2022/05/05 13:06:39;;;;;;;13.88;6.90;;;21.60;65.50;;;;;;4988357;28;20025;-62
2022/05/05 13:09:09;;;;;;;11.68;6.60;;;21.30;65.60;;;;;;4986532;28;20042;-62
2022/05/05 13:11:40;;;;;;;16.55;7.28;;;21.40;68.30;;;;;;4986582;28;20392;-61
2022/05/05 13:14:06;;;;;;;14.75;6.32;;;21.60;65.10;;;;;;4967842;28;20046;-61
2022/05/05 13:16:33;;;;;;;10.38;6.40;;;21.30;66.70;;;;;;4983476;28;20027;-61
2022/05/05 13:19:01;;;;;;;13.73;6.78;;;21.40;68.80;;;;;;4987591;28;20439;-62
2022/05/05 13:21:27;;;;;;;11.73;6.75;;;21.20;68.30;;;;;;4993370;28;20024;-61
2022/05/05 13:23:53;;;;;;;12.35;7.57;;;21.40;65.80;;;;;;4977201;28;20527;-62
2022/05/05 13:26:19;;;;;;;15.73;8.05;;;21.40;65.90;;;;;;4985142;28;20153;-61
2022/05/05 13:28:44;;;;;;;15.35;6.78;;;21.10;64.80;;;;;;4978690;28;20030;-60
2022/05/05 13:31:10;;;;;;;12.38;7.25;;;21.20;67.40;;;;;;4981771;28;20010;-62
2022/05/05 13:33:35;;;;;;;14.40;7.88;;;21.50;66.30;;;;;;4991614;28;20054;-60
2022/05/05 13:36:01;;;;;;;14.02;7.50;;;21.30;66.40;;;;;;4984984;28;20106;-61
2022/05/05 13:38:28;;;;;;;15.98;8.48;;;21.70;65.50;;;;;;4976119;28;20045;-61
2022/05/05 13:40:56;;;;;;;17.83;7.65;;;21.50;64.00;;;;;;4979166;28;21648;-60